sensor_id;sensor_type;location;lat;lon;timestamp;P1;durP1;ratioP1;P2;durP2;ratioP2
31043;SDS011;17710;52.520;13.352;2022-11-22T00:00:07;23.48;;;13.50;;
31043;SDS011;17710;52.520;13.352;2022-11-22T00:02:35;28.02;;;12.88;;
31043;SDS011;17710;52.520;13.352;2022-11-22T00:05:02;21.77;;;13.05;;
31043;SDS011;17710;52.520;13.352;2022-11-22T00:07:29;24.38;;;13.55;;
31043;SDS011;17710;52.520;13.352;2022-11-22T00:09:56;26.85;;;14.20;;
31043;SDS011;17710;52.520;13.352;2022-11-22T00:12:25;25.80;;;14.55;;
31043;SDS011;17710;52.520;13.352;2022-11-22T00:14:51;23.55;;;13.00;;
31043;SDS011;17710;52.520;13.352;2022-11-22T00:17:18;26.92;;;13.63;;
31043;SDS011;17710;52.520;13.352;2022-11-22T00:19:44;25.00;;;13.85;;
31043;SDS011;17710;52.520;13.352;2022-11-22T00:22:11;26.38;;;13.60;;
31043;SDS011;17710;52.520;13.352;2022-11-22T00:24:38;26.20;;;14.82;;
31043;SDS011;17710;52.520;13.352;2022-11-22T00:27:05;26.33;;;14.15;;
31043;SDS011;17710;52.520;13.352;2022-11-22T00:29:31;23.92;;;13.45;;
31043;SDS011;17710;52.520;13.352;2022-11-22T00:31:57;25.15;;;14.05;;
31043;SDS011;17710;52.520;13.352;2022-11-22T00:34:24;27.50;;;14.63;;
31043;SDS011;17710;52.520;13.352;2022-11-22T00:36:50;27.45;;;14.65;;
31043;SDS011;17710;52.520;13.352;2022-11-22T00:39:17;24.92;;;14.65;;
31043;SDS011;17710;52.520;13.352;2022-11-22T00:41:44;25.10;;;13.82;;
31043;SDS011;17710;52.520;13.352;2022-11-22T00:44:11;23.45;;;13.57;;
31043;SDS011;17710;52.520;13.352;2022-11-22T00:46:37;24.33;;;13.68;;
31043;SDS011;17710;52.520;13.352;2022-11-22T00:49:04;28.88;;;14.43;;
31043;SDS011;17710;52.520;13.352;2022-11-22T00:51:30;27.40;;;15.18;;
31043;SDS011;17710;52.520;13.352;2022-11-22T00:53:57;27.13;;;14.38;;
31043;SDS011;17710;52.520;13.352;2022-11-22T00:56:23;26.52;;;14.68;;
31043;SDS011;17710;52.520;13.352;2022-11-22T00:58:51;27.88;;;14.98;;
31043;SDS011;17710;52.520;13.352;2022-11-22T01:01:17;27.17;;;14.85;;
31043;SDS011;17710;52.520;13.352;2022-11-22T01:03:44;28.65;;;14.68;;
31043;SDS011;17710;52.520;13.352;2022-11-22T01:06:10;26.15;;;13.88;;
31043;SDS011;17710;52.520;13.352;2022-11-22T01:08:37;28.92;;;14.82;;
31043;SDS011;17710;52.520;13.352;2022-11-22T01:11:03;30.92;;;16.05;;
31043;SDS011;17710;52.520;13.352;2022-11-22T01:13:29;27.92;;;15.27;;
31043;SDS011;17710;52.520;13.352;2022-11-22T01:15:59;32.58;;;16.63;;
31043;SDS011;17710;52.520;13.352;2022-11-22T01:18:26;28.48;;;15.15;;
31043;SDS011;17710;52.520;13.352;2022-11-22T01:20:53;28.33;;;15.13;;
31043;SDS011;17710;52.520;13.352;2022-11-22T01:23:20;29.63;;;16.05;;
31043;SDS011;17710;52.520;13.352;2022-11-22T01:25:46;31.15;;;15.43;;
31043;SDS011;17710;52.520;13.352;2022-11-22T01:28:14;29.50;;;14.88;;
31043;SDS011;17710;52.520;13.352;2022-11-22T01:30:41;27.98;;;15.05;;
31043;SDS011;17710;52.520;13.352;2022-11-22T01:33:09;32.13;;;16.15;;
31043;SDS011;17710;52.520;13.352;2022-11-22T01:35:35;32.45;;;15.82;;
31043;SDS011;17710;52.520;13.352;2022-11-22T01:38:02;28.35;;;14.68;;
31043;SDS011;17710;52.520;13.352;2022-11-22T01:40:29;27.13;;;15.10;;
31043;SDS011;17710;52.520;13.352;2022-11-22T01:42:57;27.67;;;15.48;;
31043;SDS011;17710;52.520;13.352;2022-11-22T01:48:17;31.02;;;14.77;;
31043;SDS011;17710;52.520;13.352;2022-11-22T01:50:58;28.38;;;15.13;;
31043;SDS011;17710;52.520;13.352;2022-11-22T01:53:30;30.73;;;15.45;;
31043;SDS011;17710;52.520;13.352;2022-11-22T01:56:00;30.20;;;15.77;;
31043;SDS011;17710;52.520;13.352;2022-11-22T01:58:31;30.92;;;15.70;;
31043;SDS011;17710;52.520;13.352;2022-11-22T02:00:59;31.30;;;14.77;;
31043;SDS011;17710;52.520;13.352;2022-11-22T02:03:28;32.10;;;14.90;;
31043;SDS011;17710;52.520;13.352;2022-11-22T02:05:58;30.05;;;15.27;;
31043;SDS011;17710;52.520;13.352;2022-11-22T02:08:26;31.00;;;15.93;;
31043;SDS011;17710;52.520;13.352;2022-11-22T02:10:58;26.08;;;14.20;;
31043;SDS011;17710;52.520;13.352;2022-11-22T02:13:27;30.92;;;14.50;;
31043;SDS011;17710;52.520;13.352;2022-11-22T02:15:57;28.90;;;14.70;;
31043;SDS011;17710;52.520;13.352;2022-11-22T02:18:23;33.15;;;15.95;;
31043;SDS011;17710;52.520;13.352;2022-11-22T02:20:51;26.98;;;13.98;;
31043;SDS011;17710;52.520;13.352;2022-11-22T02:23:20;27.50;;;15.13;;
31043;SDS011;17710;52.520;13.352;2022-11-22T02:25:53;27.00;;;14.70;;
31043;SDS011;17710;52.520;13.352;2022-11-22T02:28:21;30.25;;;15.63;;
31043;SDS011;17710;52.520;13.352;2022-11-22T02:30:48;27.85;;;15.30;;
31043;SDS011;17710;52.520;13.352;2022-11-22T02:33:14;29.73;;;16.20;;
31043;SDS011;17710;52.520;13.352;2022-11-22T02:35:41;29.83;;;16.08;;
31043;SDS011;17710;52.520;13.352;2022-11-22T02:38:08;30.65;;;15.98;;
31043;SDS011;17710;52.520;13.352;2022-11-22T02:40:38;31.30;;;16.20;;
31043;SDS011;17710;52.520;13.352;2022-11-22T02:43:12;32.08;;;15.95;;
31043;SDS011;17710;52.520;13.352;2022-11-22T02:45:42;32.40;;;15.68;;
31043;SDS011;17710;52.520;13.352;2022-11-22T02:48:10;31.20;;;16.00;;
31043;SDS011;17710;52.520;13.352;2022-11-22T02:50:37;33.40;;;16.40;;
31043;SDS011;17710;52.520;13.352;2022-11-22T02:53:05;32.47;;;16.80;;
31043;SDS011;17710;52.520;13.352;2022-11-22T02:55:32;31.70;;;16.83;;
31043;SDS011;17710;52.520;13.352;2022-11-22T02:57:59;28.27;;;15.57;;
31043;SDS011;17710;52.520;13.352;2022-11-22T03:00:31;30.30;;;16.95;;
31043;SDS011;17710;52.520;13.352;2022-11-22T03:02:58;32.47;;;17.38;;
31043;SDS011;17710;52.520;13.352;2022-11-22T03:05:24;31.65;;;16.73;;
31043;SDS011;17710;52.520;13.352;2022-11-22T03:07:51;30.05;;;16.38;;
31043;SDS011;17710;52.520;13.352;2022-11-22T03:10:17;30.23;;;15.77;;
31043;SDS011;17710;52.520;13.352;2022-11-22T03:12:44;27.70;;;15.52;;
31043;SDS011;17710;52.520;13.352;2022-11-22T03:15:10;32.00;;;16.38;;
31043;SDS011;17710;52.520;13.352;2022-11-22T03:17:38;31.15;;;16.33;;
31043;SDS011;17710;52.520;13.352;2022-11-22T03:20:05;32.72;;;16.90;;
31043;SDS011;17710;52.520;13.352;2022-11-22T03:22:33;33.03;;;17.30;;
31043;SDS011;17710;52.520;13.352;2022-11-22T03:24:59;36.63;;;17.08;;
31043;SDS011;17710;52.520;13.352;2022-11-22T03:27:26;32.13;;;16.83;;
31043;SDS011;17710;52.520;13.352;2022-11-22T03:29:52;39.00;;;17.80;;
31043;SDS011;17710;52.520;13.352;2022-11-22T03:32:19;31.73;;;16.77;;
31043;SDS011;17710;52.520;13.352;2022-11-22T03:34:46;32.75;;;17.20;;
31043;SDS011;17710;52.520;13.352;2022-11-22T03:37:13;38.10;;;18.00;;
31043;SDS011;17710;52.520;13.352;2022-11-22T03:39:41;34.78;;;17.65;;
31043;SDS011;17710;52.520;13.352;2022-11-22T03:42:08;33.25;;;16.38;;
31043;SDS011;17710;52.520;13.352;2022-11-22T03:44:34;36.10;;;16.50;;
31043;SDS011;17710;52.520;13.352;2022-11-22T03:47:01;35.50;;;18.13;;
31043;SDS011;17710;52.520;13.352;2022-11-22T03:49:27;37.28;;;17.33;;
31043;SDS011;17710;52.520;13.352;2022-11-22T03:51:55;40.88;;;18.50;;
31043;SDS011;17710;52.520;13.352;2022-11-22T03:54:21;32.15;;;17.35;;
31043;SDS011;17710;52.520;13.352;2022-11-22T03:56:48;35.05;;;17.63;;
31043;SDS011;17710;52.520;13.352;2022-11-22T03:59:14;38.22;;;18.23;;
31043;SDS011;17710;52.520;13.352;2022-11-22T04:01:40;38.55;;;18.58;;
31043;SDS011;17710;52.520;13.352;2022-11-22T04:04:07;39.70;;;19.05;;
31043;SDS011;17710;52.520;13.352;2022-11-22T04:06:33;42.92;;;19.48;;
31043;SDS011;17710;52.520;13.352;2022-11-22T04:09:01;32.35;;;17.10;;
31043;SDS011;17710;52.520;13.352;2022-11-22T04:11:28;38.25;;;18.58;;
31043;SDS011;17710;52.520;13.352;2022-11-22T04:13:56;35.35;;;18.23;;
31043;SDS011;17710;52.520;13.352;2022-11-22T04:16:40;35.78;;;17.25;;
31043;SDS011;17710;52.520;13.352;2022-11-22T04:19:07;38.20;;;18.48;;
31043;SDS011;17710;52.520;13.352;2022-11-22T04:21:33;39.58;;;18.58;;
31043;SDS011;17710;52.520;13.352;2022-11-22T04:23:59;40.28;;;18.63;;
31043;SDS011;17710;52.520;13.352;2022-11-22T04:26:45;35.53;;;17.33;;
31043;SDS011;17710;52.520;13.352;2022-11-22T04:29:13;36.03;;;17.63;;
31043;SDS011;17710;52.520;13.352;2022-11-22T04:31:39;37.78;;;17.13;;
31043;SDS011;17710;52.520;13.352;2022-11-22T04:34:32;38.80;;;18.33;;
31043;SDS011;17710;52.520;13.352;2022-11-22T04:36:59;39.10;;;17.55;;
31043;SDS011;17710;52.520;13.352;2022-11-22T04:39:27;38.70;;;17.83;;
31043;SDS011;17710;52.520;13.352;2022-11-22T04:41:54;43.70;;;19.13;;
31043;SDS011;17710;52.520;13.352;2022-11-22T04:44:35;38.25;;;18.42;;
31043;SDS011;17710;52.520;13.352;2022-11-22T04:47:08;42.90;;;19.15;;
31043;SDS011;17710;52.520;13.352;2022-11-22T04:49:37;41.78;;;19.60;;
31043;SDS011;17710;52.520;13.352;2022-11-22T04:52:04;39.33;;;19.02;;
31043;SDS011;17710;52.520;13.352;2022-11-22T04:54:49;41.28;;;20.67;;
31043;SDS011;17710;52.520;13.352;2022-11-22T04:57:15;43.08;;;19.45;;
31043;SDS011;17710;52.520;13.352;2022-11-22T04:59:42;40.42;;;18.52;;
31043;SDS011;17710;52.520;13.352;2022-11-22T05:02:08;45.53;;;20.13;;
31043;SDS011;17710;52.520;13.352;2022-11-22T05:04:35;42.13;;;19.52;;
31043;SDS011;17710;52.520;13.352;2022-11-22T05:07:01;44.60;;;19.92;;
31043;SDS011;17710;52.520;13.352;2022-11-22T05:09:28;43.53;;;20.20;;
31043;SDS011;17710;52.520;13.352;2022-11-22T05:11:55;46.97;;;19.92;;
31043;SDS011;17710;52.520;13.352;2022-11-22T05:14:22;43.47;;;19.85;;
31043;SDS011;17710;52.520;13.352;2022-11-22T05:16:48;41.55;;;20.23;;
31043;SDS011;17710;52.520;13.352;2022-11-22T05:19:15;44.63;;;19.30;;
31043;SDS011;17710;52.520;13.352;2022-11-22T05:21:41;45.05;;;20.23;;
31043;SDS011;17710;52.520;13.352;2022-11-22T05:24:08;40.70;;;20.33;;
31043;SDS011;17710;52.520;13.352;2022-11-22T05:29:04;45.42;;;20.48;;
31043;SDS011;17710;52.520;13.352;2022-11-22T05:31:32;44.55;;;19.30;;
31043;SDS011;17710;52.520;13.352;2022-11-22T05:34:00;48.13;;;20.48;;
31043;SDS011;17710;52.520;13.352;2022-11-22T05:36:29;48.28;;;21.95;;
31043;SDS011;17710;52.520;13.352;2022-11-22T05:38:56;47.78;;;21.10;;
31043;SDS011;17710;52.520;13.352;2022-11-22T05:41:23;44.95;;;21.45;;
31043;SDS011;17710;52.520;13.352;2022-11-22T05:43:49;44.35;;;19.67;;
31043;SDS011;17710;52.520;13.352;2022-11-22T05:46:18;50.55;;;21.63;;
31043;SDS011;17710;52.520;13.352;2022-11-22T05:48:46;47.83;;;20.98;;
31043;SDS011;17710;52.520;13.352;2022-11-22T05:51:14;45.28;;;20.42;;
31043;SDS011;17710;52.520;13.352;2022-11-22T05:53:44;46.33;;;19.88;;
31043;SDS011;17710;52.520;13.352;2022-11-22T05:56:13;44.08;;;20.60;;
31043;SDS011;17710;52.520;13.352;2022-11-22T05:58:41;46.22;;;20.98;;
31043;SDS011;17710;52.520;13.352;2022-11-22T06:01:08;49.42;;;21.98;;
31043;SDS011;17710;52.520;13.352;2022-11-22T06:03:37;47.05;;;20.42;;
31043;SDS011;17710;52.520;13.352;2022-11-22T06:06:04;48.85;;;21.33;;
31043;SDS011;17710;52.520;13.352;2022-11-22T06:08:34;45.75;;;21.08;;
31043;SDS011;17710;52.520;13.352;2022-11-22T06:11:05;45.20;;;19.80;;
31043;SDS011;17710;52.520;13.352;2022-11-22T06:13:33;48.55;;;21.50;;
31043;SDS011;17710;52.520;13.352;2022-11-22T06:16:00;47.10;;;21.58;;
31043;SDS011;17710;52.520;13.352;2022-11-22T06:18:27;47.00;;;20.40;;
31043;SDS011;17710;52.520;13.352;2022-11-22T06:20:56;46.38;;;20.33;;
31043;SDS011;17710;52.520;13.352;2022-11-22T06:23:23;46.30;;;21.05;;
31043;SDS011;17710;52.520;13.352;2022-11-22T06:25:59;46.33;;;21.05;;
31043;SDS011;17710;52.520;13.352;2022-11-22T06:28:27;50.63;;;20.88;;
31043;SDS011;17710;52.520;13.352;2022-11-22T06:30:59;45.20;;;20.08;;
31043;SDS011;17710;52.520;13.352;2022-11-22T06:33:26;48.15;;;21.38;;
31043;SDS011;17710;52.520;13.352;2022-11-22T06:35:53;46.50;;;20.67;;
31043;SDS011;17710;52.520;13.352;2022-11-22T06:38:21;48.88;;;21.52;;
31043;SDS011;17710;52.520;13.352;2022-11-22T06:40:47;46.55;;;20.60;;
31043;SDS011;17710;52.520;13.352;2022-11-22T06:43:14;48.80;;;20.80;;
31043;SDS011;17710;52.520;13.352;2022-11-22T06:45:40;44.90;;;20.70;;
31043;SDS011;17710;52.520;13.352;2022-11-22T06:48:06;46.95;;;20.58;;
31043;SDS011;17710;52.520;13.352;2022-11-22T06:50:33;45.80;;;20.02;;
31043;SDS011;17710;52.520;13.352;2022-11-22T06:52:59;43.38;;;20.42;;
31043;SDS011;17710;52.520;13.352;2022-11-22T06:55:27;47.13;;;20.33;;
31043;SDS011;17710;52.520;13.352;2022-11-22T06:57:53;51.72;;;20.48;;
31043;SDS011;17710;52.520;13.352;2022-11-22T07:00:20;47.90;;;20.08;;
31043;SDS011;17710;52.520;13.352;2022-11-22T07:02:46;47.53;;;20.77;;
31043;SDS011;17710;52.520;13.352;2022-11-22T07:05:13;48.40;;;20.95;;
31043;SDS011;17710;52.520;13.352;2022-11-22T07:07:39;44.80;;;20.77;;
31043;SDS011;17710;52.520;13.352;2022-11-22T07:10:06;44.40;;;20.92;;
31043;SDS011;17710;52.520;13.352;2022-11-22T07:12:34;42.17;;;19.38;;
31043;SDS011;17710;52.520;13.352;2022-11-22T07:15:01;43.50;;;19.92;;
31043;SDS011;17710;52.520;13.352;2022-11-22T07:17:27;48.03;;;20.85;;
31043;SDS011;17710;52.520;13.352;2022-11-22T07:19:54;44.33;;;19.92;;
31043;SDS011;17710;52.520;13.352;2022-11-22T07:22:20;49.60;;;21.02;;
31043;SDS011;17710;52.520;13.352;2022-11-22T07:24:46;50.05;;;20.98;;
31043;SDS011;17710;52.520;13.352;2022-11-22T07:27:13;42.15;;;19.58;;
31043;SDS011;17710;52.520;13.352;2022-11-22T07:29:41;42.58;;;19.58;;
31043;SDS011;17710;52.520;13.352;2022-11-22T07:32:07;43.85;;;19.73;;
31043;SDS011;17710;52.520;13.352;2022-11-22T07:34:34;46.03;;;19.02;;
31043;SDS011;17710;52.520;13.352;2022-11-22T07:37:01;41.30;;;20.08;;
31043;SDS011;17710;52.520;13.352;2022-11-22T07:39:27;51.55;;;20.23;;
31043;SDS011;17710;52.520;13.352;2022-11-22T07:41:54;45.97;;;19.70;;
31043;SDS011;17710;52.520;13.352;2022-11-22T07:44:20;47.40;;;18.63;;
31043;SDS011;17710;52.520;13.352;2022-11-22T07:46:48;41.40;;;19.33;;
31043;SDS011;17710;52.520;13.352;2022-11-22T07:49:16;40.40;;;18.25;;
31043;SDS011;17710;52.520;13.352;2022-11-22T07:51:43;42.25;;;19.40;;
31043;SDS011;17710;52.520;13.352;2022-11-22T07:54:10;42.67;;;18.30;;
31043;SDS011;17710;52.520;13.352;2022-11-22T07:56:37;44.65;;;18.98;;
31043;SDS011;17710;52.520;13.352;2022-11-22T07:59:03;40.35;;;19.60;;
31043;SDS011;17710;52.520;13.352;2022-11-22T08:01:30;42.75;;;20.27;;
31043;SDS011;17710;52.520;13.352;2022-11-22T08:04:01;38.65;;;18.88;;
31043;SDS011;17710;52.520;13.352;2022-11-22T08:06:27;46.53;;;20.58;;
31043;SDS011;17710;52.520;13.352;2022-11-22T08:08:54;45.63;;;19.55;;
31043;SDS011;17710;52.520;13.352;2022-11-22T08:11:21;44.72;;;19.95;;
31043;SDS011;17710;52.520;13.352;2022-11-22T08:13:47;47.55;;;20.45;;
31043;SDS011;17710;52.520;13.352;2022-11-22T08:16:14;47.78;;;20.58;;
31043;SDS011;17710;52.520;13.352;2022-11-22T08:18:44;48.40;;;21.48;;
31043;SDS011;17710;52.520;13.352;2022-11-22T08:21:14;46.33;;;20.20;;
31043;SDS011;17710;52.520;13.352;2022-11-22T08:23:42;45.17;;;19.95;;
31043;SDS011;17710;52.520;13.352;2022-11-22T08:26:10;45.33;;;20.92;;
31043;SDS011;17710;52.520;13.352;2022-11-22T08:28:43;45.45;;;20.90;;
31043;SDS011;17710;52.520;13.352;2022-11-22T08:31:12;50.42;;;21.90;;
31043;SDS011;17710;52.520;13.352;2022-11-22T08:33:40;45.53;;;20.85;;
31043;SDS011;17710;52.520;13.352;2022-11-22T08:36:07;40.53;;;19.10;;
31043;SDS011;17710;52.520;13.352;2022-11-22T08:38:36;43.30;;;19.85;;
31043;SDS011;17710;52.520;13.352;2022-11-22T08:41:04;48.33;;;21.02;;
31043;SDS011;17710;52.520;13.352;2022-11-22T08:43:31;42.97;;;20.27;;
31043;SDS011;17710;52.520;13.352;2022-11-22T08:45:58;51.70;;;21.02;;
31043;SDS011;17710;52.520;13.352;2022-11-22T08:48:26;54.15;;;21.70;;
31043;SDS011;17710;52.520;13.352;2022-11-22T08:50:53;49.35;;;21.40;;
31043;SDS011;17710;52.520;13.352;2022-11-22T08:53:22;50.13;;;22.00;;
31043;SDS011;17710;52.520;13.352;2022-11-22T08:55:50;52.13;;;20.92;;
31043;SDS011;17710;52.520;13.352;2022-11-22T08:58:18;48.33;;;20.52;;
31043;SDS011;17710;52.520;13.352;2022-11-22T09:00:47;52.97;;;22.55;;
31043;SDS011;17710;52.520;13.352;2022-11-22T09:03:13;49.00;;;21.83;;
31043;SDS011;17710;52.520;13.352;2022-11-22T09:05:40;48.55;;;22.25;;
31043;SDS011;17710;52.520;13.352;2022-11-22T09:08:07;52.30;;;22.40;;
31043;SDS011;17710;52.520;13.352;2022-11-22T09:10:33;44.33;;;21.85;;
31043;SDS011;17710;52.520;13.352;2022-11-22T09:13:01;55.92;;;23.15;;
31043;SDS011;17710;52.520;13.352;2022-11-22T09:15:28;56.90;;;24.05;;
31043;SDS011;17710;52.520;13.352;2022-11-22T09:17:58;51.83;;;22.48;;
31043;SDS011;17710;52.520;13.352;2022-11-22T09:20:26;51.30;;;21.98;;
31043;SDS011;17710;52.520;13.352;2022-11-22T09:22:53;57.20;;;23.52;;
31043;SDS011;17710;52.520;13.352;2022-11-22T09:25:19;53.25;;;23.08;;
31043;SDS011;17710;52.520;13.352;2022-11-22T09:27:46;50.58;;;23.15;;
31043;SDS011;17710;52.520;13.352;2022-11-22T09:30:14;57.75;;;23.50;;
31043;SDS011;17710;52.520;13.352;2022-11-22T09:32:41;53.65;;;23.67;;
31043;SDS011;17710;52.520;13.352;2022-11-22T09:35:08;51.45;;;24.13;;
31043;SDS011;17710;52.520;13.352;2022-11-22T09:37:35;54.83;;;22.95;;
31043;SDS011;17710;52.520;13.352;2022-11-22T09:40:01;55.33;;;23.95;;
31043;SDS011;17710;52.520;13.352;2022-11-22T09:42:35;51.42;;;22.20;;
31043;SDS011;17710;52.520;13.352;2022-11-22T09:45:28;55.80;;;22.38;;
31043;SDS011;17710;52.520;13.352;2022-11-22T09:48:01;59.10;;;23.23;;
31043;SDS011;17710;52.520;13.352;2022-11-22T09:50:40;50.67;;;22.17;;
31043;SDS011;17710;52.520;13.352;2022-11-22T09:53:15;54.45;;;23.20;;
31043;SDS011;17710;52.520;13.352;2022-11-22T09:55:48;58.85;;;24.90;;
31043;SDS011;17710;52.520;13.352;2022-11-22T09:58:20;56.63;;;22.90;;
31043;SDS011;17710;52.520;13.352;2022-11-22T10:00:54;54.35;;;23.35;;
31043;SDS011;17710;52.520;13.352;2022-11-22T10:03:27;54.00;;;23.85;;
31043;SDS011;17710;52.520;13.352;2022-11-22T10:05:59;56.53;;;23.45;;
31043;SDS011;17710;52.520;13.352;2022-11-22T10:08:33;57.92;;;22.88;;
31043;SDS011;17710;52.520;13.352;2022-11-22T10:11:09;53.25;;;23.88;;
31043;SDS011;17710;52.520;13.352;2022-11-22T10:13:49;56.78;;;23.42;;
31043;SDS011;17710;52.520;13.352;2022-11-22T10:16:20;60.10;;;23.35;;
31043;SDS011;17710;52.520;13.352;2022-11-22T10:18:55;52.67;;;22.60;;
31043;SDS011;17710;52.520;13.352;2022-11-22T10:21:25;59.40;;;24.33;;
31043;SDS011;17710;52.520;13.352;2022-11-22T10:23:52;57.97;;;23.60;;
31043;SDS011;17710;52.520;13.352;2022-11-22T10:26:20;59.92;;;23.10;;
31043;SDS011;17710;52.520;13.352;2022-11-22T10:28:53;58.22;;;23.55;;
31043;SDS011;17710;52.520;13.352;2022-11-22T10:31:28;53.95;;;22.23;;
31043;SDS011;17710;52.520;13.352;2022-11-22T10:33:59;58.42;;;24.50;;
31043;SDS011;17710;52.520;13.352;2022-11-22T10:36:33;55.03;;;23.02;;
31043;SDS011;17710;52.520;13.352;2022-11-22T10:39:09;56.28;;;22.45;;
31043;SDS011;17710;52.520;13.352;2022-11-22T10:41:59;53.17;;;22.40;;
31043;SDS011;17710;52.520;13.352;2022-11-22T10:44:44;53.58;;;22.60;;
31043;SDS011;17710;52.520;13.352;2022-11-22T10:47:19;58.13;;;24.80;;
31043;SDS011;17710;52.520;13.352;2022-11-22T10:49:59;51.85;;;22.63;;
31043;SDS011;17710;52.520;13.352;2022-11-22T10:52:32;56.33;;;23.88;;
31043;SDS011;17710;52.520;13.352;2022-11-22T10:55:16;57.00;;;22.80;;
31043;SDS011;17710;52.520;13.352;2022-11-22T10:57:55;50.97;;;21.75;;
31043;SDS011;17710;52.520;13.352;2022-11-22T11:03:02;54.45;;;22.92;;
31043;SDS011;17710;52.520;13.352;2022-11-22T11:05:37;50.95;;;22.00;;
31043;SDS011;17710;52.520;13.352;2022-11-22T11:08:10;55.28;;;23.42;;
31043;SDS011;17710;52.520;13.352;2022-11-22T11:10:41;54.63;;;22.98;;
31043;SDS011;17710;52.520;13.352;2022-11-22T11:13:15;56.90;;;23.10;;
31043;SDS011;17710;52.520;13.352;2022-11-22T11:15:47;59.03;;;23.73;;
31043;SDS011;17710;52.520;13.352;2022-11-22T11:18:18;56.72;;;22.77;;
31043;SDS011;17710;52.520;13.352;2022-11-22T11:20:49;54.03;;;23.25;;
31043;SDS011;17710;52.520;13.352;2022-11-22T11:23:17;54.05;;;21.95;;
31043;SDS011;17710;52.520;13.352;2022-11-22T11:25:44;55.75;;;21.70;;
31043;SDS011;17710;52.520;13.352;2022-11-22T11:28:15;64.25;;;25.23;;
31043;SDS011;17710;52.520;13.352;2022-11-22T11:30:46;49.35;;;21.65;;
31043;SDS011;17710;52.520;13.352;2022-11-22T11:33:26;50.92;;;22.60;;
31043;SDS011;17710;52.520;13.352;2022-11-22T11:35:54;50.78;;;22.80;;
31043;SDS011;17710;52.520;13.352;2022-11-22T11:38:26;51.63;;;21.95;;
31043;SDS011;17710;52.520;13.352;2022-11-22T11:40:53;55.30;;;23.13;;
31043;SDS011;17710;52.520;13.352;2022-11-22T11:43:20;55.72;;;21.67;;
31043;SDS011;17710;52.520;13.352;2022-11-22T11:45:48;53.45;;;22.35;;
31043;SDS011;17710;52.520;13.352;2022-11-22T11:48:29;54.72;;;22.80;;
31043;SDS011;17710;52.520;13.352;2022-11-22T11:51:05;52.05;;;21.17;;
31043;SDS011;17710;52.520;13.352;2022-11-22T11:53:33;55.20;;;23.27;;
31043;SDS011;17710;52.520;13.352;2022-11-22T11:58:57;54.78;;;22.35;;
31043;SDS011;17710;52.520;13.352;2022-11-22T12:01:25;54.08;;;22.85;;
31043;SDS011;17710;52.520;13.352;2022-11-22T12:03:54;56.38;;;23.00;;
31043;SDS011;17710;52.520;13.352;2022-11-22T12:06:26;48.60;;;21.27;;
31043;SDS011;17710;52.520;13.352;2022-11-22T12:08:53;52.95;;;22.25;;
31043;SDS011;17710;52.520;13.352;2022-11-22T12:11:25;49.03;;;21.88;;
31043;SDS011;17710;52.520;13.352;2022-11-22T12:13:58;52.55;;;22.90;;
31043;SDS011;17710;52.520;13.352;2022-11-22T12:16:28;52.13;;;21.70;;
31043;SDS011;17710;52.520;13.352;2022-11-22T12:18:58;54.97;;;22.33;;
31043;SDS011;17710;52.520;13.352;2022-11-22T12:21:37;51.08;;;22.55;;
31043;SDS011;17710;52.520;13.352;2022-11-22T12:24:11;50.93;;;20.87;;
31043;SDS011;17710;52.520;13.352;2022-11-22T12:26:42;53.03;;;22.23;;
31043;SDS011;17710;52.520;13.352;2022-11-22T12:29:09;53.17;;;21.83;;
31043;SDS011;17710;52.520;13.352;2022-11-22T12:31:37;51.80;;;22.63;;
31043;SDS011;17710;52.520;13.352;2022-11-22T12:34:09;48.95;;;20.30;;
31043;SDS011;17710;52.520;13.352;2022-11-22T12:36:40;49.17;;;21.80;;
31043;SDS011;17710;52.520;13.352;2022-11-22T12:39:14;48.00;;;22.13;;
31043;SDS011;17710;52.520;13.352;2022-11-22T12:41:44;51.40;;;22.58;;
31043;SDS011;17710;52.520;13.352;2022-11-22T12:44:14;51.55;;;21.63;;
31043;SDS011;17710;52.520;13.352;2022-11-22T12:46:44;64.65;;;23.98;;
31043;SDS011;17710;52.520;13.352;2022-11-22T12:49:16;55.35;;;23.17;;
31043;SDS011;17710;52.520;13.352;2022-11-22T12:51:48;56.55;;;22.92;;
31043;SDS011;17710;52.520;13.352;2022-11-22T12:54:21;49.92;;;20.65;;
31043;SDS011;17710;52.520;13.352;2022-11-22T12:57:04;53.17;;;21.55;;
31043;SDS011;17710;52.520;13.352;2022-11-22T12:59:37;61.90;;;24.35;;
31043;SDS011;17710;52.520;13.352;2022-11-22T13:02:12;62.92;;;24.25;;
31043;SDS011;17710;52.520;13.352;2022-11-22T13:04:47;57.08;;;24.48;;
31043;SDS011;17710;52.520;13.352;2022-11-22T13:07:18;54.45;;;22.13;;
31043;SDS011;17710;52.520;13.352;2022-11-22T13:09:54;51.42;;;23.17;;
31043;SDS011;17710;52.520;13.352;2022-11-22T13:12:28;60.58;;;23.70;;
31043;SDS011;17710;52.520;13.352;2022-11-22T13:14:57;54.72;;;22.80;;
31043;SDS011;17710;52.520;13.352;2022-11-22T13:17:25;57.58;;;24.38;;
31043;SDS011;17710;52.520;13.352;2022-11-22T13:19:58;55.83;;;23.15;;
31043;SDS011;17710;52.520;13.352;2022-11-22T13:22:29;58.42;;;24.35;;
31043;SDS011;17710;52.520;13.352;2022-11-22T13:25:09;59.63;;;24.83;;
31043;SDS011;17710;52.520;13.352;2022-11-22T13:27:52;56.00;;;24.42;;
31043;SDS011;17710;52.520;13.352;2022-11-22T13:30:23;54.85;;;24.25;;
31043;SDS011;17710;52.520;13.352;2022-11-22T13:32:51;54.75;;;22.67;;
31043;SDS011;17710;52.520;13.352;2022-11-22T13:35:25;53.95;;;23.27;;
31043;SDS011;17710;52.520;13.352;2022-11-22T13:37:55;59.25;;;25.00;;
31043;SDS011;17710;52.520;13.352;2022-11-22T13:40:24;55.20;;;22.55;;
31043;SDS011;17710;52.520;13.352;2022-11-22T13:49:31;48.17;;;21.38;;
31043;SDS011;17710;52.520;13.352;2022-11-22T13:52:03;62.42;;;23.77;;
31043;SDS011;17710;52.520;13.352;2022-11-22T13:54:59;55.88;;;23.02;;
31043;SDS011;17710;52.520;13.352;2022-11-22T13:57:46;79.15;;;23.48;;
31043;SDS011;17710;52.520;13.352;2022-11-22T14:03:19;90.35;;;25.70;;
31043;SDS011;17710;52.520;13.352;2022-11-22T14:05:49;57.50;;;22.38;;
31043;SDS011;17710;52.520;13.352;2022-11-22T14:08:25;54.88;;;21.77;;
31043;SDS011;17710;52.520;13.352;2022-11-22T14:11:06;53.70;;;22.98;;
31043;SDS011;17710;52.520;13.352;2022-11-22T14:13:39;54.35;;;23.48;;
31043;SDS011;17710;52.520;13.352;2022-11-22T14:16:28;55.67;;;23.08;;
31043;SDS011;17710;52.520;13.352;2022-11-22T14:19:07;54.75;;;23.33;;
31043;SDS011;17710;52.520;13.352;2022-11-22T14:21:47;54.58;;;23.20;;
31043;SDS011;17710;52.520;13.352;2022-11-22T14:24:27;54.95;;;22.52;;
31043;SDS011;17710;52.520;13.352;2022-11-22T14:27:06;55.78;;;23.33;;
31043;SDS011;17710;52.520;13.352;2022-11-22T14:29:49;55.60;;;23.20;;
31043;SDS011;17710;52.520;13.352;2022-11-22T14:32:40;53.70;;;23.15;;
31043;SDS011;17710;52.520;13.352;2022-11-22T14:35:21;53.78;;;22.85;;
31043;SDS011;17710;52.520;13.352;2022-11-22T14:38:00;55.10;;;23.23;;
31043;SDS011;17710;52.520;13.352;2022-11-22T14:40:35;55.75;;;23.42;;
31043;SDS011;17710;52.520;13.352;2022-11-22T14:43:05;53.45;;;22.90;;